sensor_id;sensor_type;location;lat;lon;timestamp;P1;durP1;ratioP1;P2;durP2;ratioP2
5710;SDS011;61291;52.524;13.422;2023-11-21T00:00:49;75.73;;;70.80;;
5710;SDS011;61291;52.524;13.422;2023-11-21T00:03:15;87.87;;;81.37;;
5710;SDS011;61291;52.524;13.422;2023-11-21T00:05:43;89.73;;;82.17;;
5710;SDS011;61291;52.524;13.422;2023-11-21T00:08:09;82.20;;;75.33;;
5710;SDS011;61291;52.524;13.422;2023-11-21T00:10:35;81.33;;;74.60;;
5710;SDS011;61291;52.524;13.422;2023-11-21T00:13:03;86.30;;;80.10;;
5710;SDS011;61291;52.524;13.422;2023-11-21T00:15:28;78.67;;;73.27;;
5710;SDS011;61291;52.524;13.422;2023-11-21T00:17:54;93.93;;;85.20;;
5710;SDS011;61291;52.524;13.422;2023-11-21T00:20:20;92.30;;;83.97;;
5710;SDS011;61291;52.524;13.422;2023-11-21T00:22:45;85.60;;;79.10;;
5710;SDS011;61291;52.524;13.422;2023-11-21T00:25:11;83.93;;;77.30;;
5710;SDS011;61291;52.524;13.422;2023-11-21T00:27:37;89.50;;;81.90;;
5710;SDS011;61291;52.524;13.422;2023-11-21T00:30:03;90.80;;;83.37;;
5710;SDS011;61291;52.524;13.422;2023-11-21T00:32:30;91.53;;;83.23;;
5710;SDS011;61291;52.524;13.422;2023-11-21T00:34:56;85.20;;;77.90;;
5710;SDS011;61291;52.524;13.422;2023-11-21T00:37:21;94.80;;;85.60;;
5710;SDS011;61291;52.524;13.422;2023-11-21T00:39:47;78.27;;;69.97;;
5710;SDS011;61291;52.524;13.422;2023-11-21T00:42:12;97.50;;;88.83;;
5710;SDS011;61291;52.524;13.422;2023-11-21T00:44:38;111.00;;;102.40;;
5710;SDS011;61291;52.524;13.422;2023-11-21T00:47:04;116.70;;;106.53;;
5710;SDS011;61291;52.524;13.422;2023-11-21T00:49:30;116.43;;;106.83;;
5710;SDS011;61291;52.524;13.422;2023-11-21T00:51:55;93.43;;;84.70;;
5710;SDS011;61291;52.524;13.422;2023-11-21T00:54:22;79.53;;;73.63;;
5710;SDS011;61291;52.524;13.422;2023-11-21T00:56:48;94.97;;;86.47;;
5710;SDS011;61291;52.524;13.422;2023-11-21T00:59:14;92.87;;;84.53;;
5710;SDS011;61291;52.524;13.422;2023-11-21T01:01:39;94.77;;;85.73;;
5710;SDS011;61291;52.524;13.422;2023-11-21T01:04:05;96.73;;;86.93;;
5710;SDS011;61291;52.524;13.422;2023-11-21T01:06:31;103.03;;;92.80;;
5710;SDS011;61291;52.524;13.422;2023-11-21T01:08:57;93.00;;;84.63;;
5710;SDS011;61291;52.524;13.422;2023-11-21T01:11:23;99.17;;;88.03;;
5710;SDS011;61291;52.524;13.422;2023-11-21T01:13:48;102.20;;;90.60;;
5710;SDS011;61291;52.524;13.422;2023-11-21T01:16:14;93.27;;;85.10;;
5710;SDS011;61291;52.524;13.422;2023-11-21T01:18:39;91.53;;;82.83;;
5710;SDS011;61291;52.524;13.422;2023-11-21T01:21:05;130.80;;;84.53;;
5710;SDS011;61291;52.524;13.422;2023-11-21T01:23:31;120.40;;;98.43;;
5710;SDS011;61291;52.524;13.422;2023-11-21T01:25:56;133.07;;;100.67;;
5710;SDS011;61291;52.524;13.422;2023-11-21T01:28:22;137.60;;;84.10;;
5710;SDS011;61291;52.524;13.422;2023-11-21T01:30:48;156.90;;;101.90;;
5710;SDS011;61291;52.524;13.422;2023-11-21T01:33:14;146.00;;;96.90;;
5710;SDS011;61291;52.524;13.422;2023-11-21T01:35:40;134.20;;;98.53;;
5710;SDS011;61291;52.524;13.422;2023-11-21T01:38:07;94.00;;;85.43;;
5710;SDS011;61291;52.524;13.422;2023-11-21T01:40:33;120.40;;;85.50;;
5710;SDS011;61291;52.524;13.422;2023-11-21T01:42:59;111.23;;;87.73;;
5710;SDS011;61291;52.524;13.422;2023-11-21T01:45:24;85.77;;;78.23;;
5710;SDS011;61291;52.524;13.422;2023-11-21T01:47:50;80.73;;;74.10;;
5710;SDS011;61291;52.524;13.422;2023-11-21T01:50:16;85.90;;;77.53;;
5710;SDS011;61291;52.524;13.422;2023-11-21T01:52:43;91.70;;;83.30;;
5710;SDS011;61291;52.524;13.422;2023-11-21T01:55:10;93.63;;;80.20;;
5710;SDS011;61291;52.524;13.422;2023-11-21T01:57:37;98.80;;;88.70;;
5710;SDS011;61291;52.524;13.422;2023-11-21T02:00:03;80.03;;;69.27;;
5710;SDS011;61291;52.524;13.422;2023-11-21T02:02:47;94.90;;;85.03;;
5710;SDS011;61291;52.524;13.422;2023-11-21T02:05:17;92.00;;;83.43;;
5710;SDS011;61291;52.524;13.422;2023-11-21T02:07:43;85.83;;;78.83;;
5710;SDS011;61291;52.524;13.422;2023-11-21T02:10:10;86.43;;;78.30;;
5710;SDS011;61291;52.524;13.422;2023-11-21T02:12:39;90.67;;;81.73;;
5710;SDS011;61291;52.524;13.422;2023-11-21T02:15:05;84.57;;;78.23;;
5710;SDS011;61291;52.524;13.422;2023-11-21T02:17:39;83.57;;;75.47;;
5710;SDS011;61291;52.524;13.422;2023-11-21T02:20:12;79.57;;;74.13;;
5710;SDS011;61291;52.524;13.422;2023-11-21T02:22:40;84.97;;;77.50;;
5710;SDS011;61291;52.524;13.422;2023-11-21T02:25:07;88.50;;;80.77;;
5710;SDS011;61291;52.524;13.422;2023-11-21T02:27:33;85.80;;;79.27;;
5710;SDS011;61291;52.524;13.422;2023-11-21T02:29:58;84.00;;;77.70;;
5710;SDS011;61291;52.524;13.422;2023-11-21T02:32:25;84.00;;;76.90;;
5710;SDS011;61291;52.524;13.422;2023-11-21T02:34:51;86.47;;;78.40;;
5710;SDS011;61291;52.524;13.422;2023-11-21T02:37:16;81.37;;;75.63;;
5710;SDS011;61291;52.524;13.422;2023-11-21T02:39:42;79.93;;;73.63;;
5710;SDS011;61291;52.524;13.422;2023-11-21T02:42:08;88.67;;;77.03;;
5710;SDS011;61291;52.524;13.422;2023-11-21T02:44:33;81.57;;;74.97;;
5710;SDS011;61291;52.524;13.422;2023-11-21T02:46:59;77.33;;;70.83;;
5710;SDS011;61291;52.524;13.422;2023-11-21T02:49:25;81.80;;;75.10;;
5710;SDS011;61291;52.524;13.422;2023-11-21T02:51:53;81.77;;;75.33;;
5710;SDS011;61291;52.524;13.422;2023-11-21T02:54:19;81.40;;;74.93;;
5710;SDS011;61291;52.524;13.422;2023-11-21T02:56:46;80.07;;;73.33;;
5710;SDS011;61291;52.524;13.422;2023-11-21T02:59:12;79.97;;;73.40;;
5710;SDS011;61291;52.524;13.422;2023-11-21T03:01:38;80.40;;;73.90;;
5710;SDS011;61291;52.524;13.422;2023-11-21T03:04:03;82.67;;;75.47;;
5710;SDS011;61291;52.524;13.422;2023-11-21T03:06:29;82.80;;;75.93;;
5710;SDS011;61291;52.524;13.422;2023-11-21T03:08:54;83.93;;;77.27;;
5710;SDS011;61291;52.524;13.422;2023-11-21T03:11:20;84.27;;;76.97;;
5710;SDS011;61291;52.524;13.422;2023-11-21T03:13:45;83.50;;;76.70;;
5710;SDS011;61291;52.524;13.422;2023-11-21T03:16:11;84.60;;;77.97;;
5710;SDS011;61291;52.524;13.422;2023-11-21T03:18:37;84.37;;;77.97;;
5710;SDS011;61291;52.524;13.422;2023-11-21T03:21:04;85.83;;;79.20;;
5710;SDS011;61291;52.524;13.422;2023-11-21T03:23:30;76.17;;;70.53;;
5710;SDS011;61291;52.524;13.422;2023-11-21T03:25:56;86.60;;;79.30;;
5710;SDS011;61291;52.524;13.422;2023-11-21T03:28:22;83.33;;;77.10;;
5710;SDS011;61291;52.524;13.422;2023-11-21T03:30:48;82.60;;;76.47;;
5710;SDS011;61291;52.524;13.422;2023-11-21T03:33:14;80.57;;;74.80;;
5710;SDS011;61291;52.524;13.422;2023-11-21T03:35:39;85.97;;;79.50;;
5710;SDS011;61291;52.524;13.422;2023-11-21T03:38:06;81.20;;;75.47;;
5710;SDS011;61291;52.524;13.422;2023-11-21T03:40:32;79.70;;;74.20;;
5710;SDS011;61291;52.524;13.422;2023-11-21T03:42:58;86.53;;;79.93;;
5710;SDS011;61291;52.524;13.422;2023-11-21T03:45:23;84.40;;;77.60;;
5710;SDS011;61291;52.524;13.422;2023-11-21T03:47:49;83.33;;;76.93;;
5710;SDS011;61291;52.524;13.422;2023-11-21T03:50:15;81.53;;;75.57;;
5710;SDS011;61291;52.524;13.422;2023-11-21T03:52:40;80.93;;;75.13;;
5710;SDS011;61291;52.524;13.422;2023-11-21T03:55:06;83.67;;;77.23;;
5710;SDS011;61291;52.524;13.422;2023-11-21T03:57:32;87.80;;;81.50;;
5710;SDS011;61291;52.524;13.422;2023-11-21T03:59:57;92.27;;;85.67;;
5710;SDS011;61291;52.524;13.422;2023-11-21T04:02:22;86.87;;;80.30;;
5710;SDS011;61291;52.524;13.422;2023-11-21T04:04:50;81.77;;;75.77;;
5710;SDS011;61291;52.524;13.422;2023-11-21T04:07:15;87.80;;;81.20;;
5710;SDS011;61291;52.524;13.422;2023-11-21T04:09:41;87.33;;;80.83;;
5710;SDS011;61291;52.524;13.422;2023-11-21T04:12:07;82.80;;;76.60;;
5710;SDS011;61291;52.524;13.422;2023-11-21T04:14:34;84.90;;;78.70;;
5710;SDS011;61291;52.524;13.422;2023-11-21T04:16:59;85.10;;;78.80;;
5710;SDS011;61291;52.524;13.422;2023-11-21T04:19:24;85.70;;;79.47;;
5710;SDS011;61291;52.524;13.422;2023-11-21T04:21:50;82.13;;;75.53;;
5710;SDS011;61291;52.524;13.422;2023-11-21T04:24:16;81.77;;;75.50;;
5710;SDS011;61291;52.524;13.422;2023-11-21T04:26:41;79.63;;;73.63;;
5710;SDS011;61291;52.524;13.422;2023-11-21T04:29:08;81.07;;;75.23;;
5710;SDS011;61291;52.524;13.422;2023-11-21T04:31:33;86.27;;;79.57;;
5710;SDS011;61291;52.524;13.422;2023-11-21T04:33:59;82.70;;;76.60;;
5710;SDS011;61291;52.524;13.422;2023-11-21T04:36:24;85.23;;;78.13;;
5710;SDS011;61291;52.524;13.422;2023-11-21T04:38:49;83.40;;;77.00;;
5710;SDS011;61291;52.524;13.422;2023-11-21T04:41:15;85.50;;;79.10;;
5710;SDS011;61291;52.524;13.422;2023-11-21T04:43:40;81.70;;;75.70;;
5710;SDS011;61291;52.524;13.422;2023-11-21T04:46:07;83.43;;;77.10;;
5710;SDS011;61291;52.524;13.422;2023-11-21T04:48:32;79.90;;;74.20;;
5710;SDS011;61291;52.524;13.422;2023-11-21T04:50:58;70.25;;;64.65;;
5710;SDS011;61291;52.524;13.422;2023-11-21T04:53:23;81.07;;;75.07;;
5710;SDS011;61291;52.524;13.422;2023-11-21T04:55:49;84.40;;;77.63;;
5710;SDS011;61291;52.524;13.422;2023-11-21T04:58:14;85.67;;;79.17;;
5710;SDS011;61291;52.524;13.422;2023-11-21T05:00:40;79.60;;;73.77;;
5710;SDS011;61291;52.524;13.422;2023-11-21T05:03:06;83.40;;;77.30;;
5710;SDS011;61291;52.524;13.422;2023-11-21T05:05:32;75.10;;;69.57;;
5710;SDS011;61291;52.524;13.422;2023-11-21T05:07:59;83.33;;;77.23;;
5710;SDS011;61291;52.524;13.422;2023-11-21T05:10:24;77.00;;;71.57;;
5710;SDS011;61291;52.524;13.422;2023-11-21T05:12:50;81.50;;;75.50;;
5710;SDS011;61291;52.524;13.422;2023-11-21T05:15:16;82.70;;;76.33;;
5710;SDS011;61291;52.524;13.422;2023-11-21T05:17:44;79.37;;;73.60;;
5710;SDS011;61291;52.524;13.422;2023-11-21T05:20:11;88.03;;;81.83;;
5710;SDS011;61291;52.524;13.422;2023-11-21T05:22:38;82.27;;;76.53;;
5710;SDS011;61291;52.524;13.422;2023-11-21T05:25:05;82.10;;;75.87;;
5710;SDS011;61291;52.524;13.422;2023-11-21T05:27:32;76.70;;;71.23;;
5710;SDS011;61291;52.524;13.422;2023-11-21T05:29:58;79.07;;;73.33;;
5710;SDS011;61291;52.524;13.422;2023-11-21T05:32:24;64.68;;;59.58;;
5710;SDS011;61291;52.524;13.422;2023-11-21T05:34:50;77.47;;;70.97;;
5710;SDS011;61291;52.524;13.422;2023-11-21T05:37:15;83.60;;;77.10;;
5710;SDS011;61291;52.524;13.422;2023-11-21T05:39:42;80.97;;;74.60;;
5710;SDS011;61291;52.524;13.422;2023-11-21T05:42:07;81.17;;;74.80;;
5710;SDS011;61291;52.524;13.422;2023-11-21T05:44:35;79.73;;;73.30;;
5710;SDS011;61291;52.524;13.422;2023-11-21T05:47:02;78.90;;;72.63;;
5710;SDS011;61291;52.524;13.422;2023-11-21T05:49:28;84.03;;;77.43;;
5710;SDS011;61291;52.524;13.422;2023-11-21T05:51:54;78.03;;;72.13;;
5710;SDS011;61291;52.524;13.422;2023-11-21T05:54:20;76.97;;;71.00;;
5710;SDS011;61291;52.524;13.422;2023-11-21T05:56:47;76.90;;;70.90;;
5710;SDS011;61291;52.524;13.422;2023-11-21T05:59:12;81.70;;;75.90;;
5710;SDS011;61291;52.524;13.422;2023-11-21T06:01:37;68.13;;;62.97;;
5710;SDS011;61291;52.524;13.422;2023-11-21T06:04:04;80.90;;;75.03;;
5710;SDS011;61291;52.524;13.422;2023-11-21T06:06:30;79.70;;;73.60;;
5710;SDS011;61291;52.524;13.422;2023-11-21T06:08:56;79.80;;;74.27;;
5710;SDS011;61291;52.524;13.422;2023-11-21T06:11:22;77.00;;;71.50;;
5710;SDS011;61291;52.524;13.422;2023-11-21T06:13:47;73.40;;;68.00;;
5710;SDS011;61291;52.524;13.422;2023-11-21T06:16:13;70.30;;;64.60;;
5710;SDS011;61291;52.524;13.422;2023-11-21T06:18:41;78.40;;;72.67;;
5710;SDS011;61291;52.524;13.422;2023-11-21T06:21:09;75.57;;;70.20;;
5710;SDS011;61291;52.524;13.422;2023-11-21T06:23:34;71.67;;;66.47;;
5710;SDS011;61291;52.524;13.422;2023-11-21T06:26:00;78.30;;;72.87;;
5710;SDS011;61291;52.524;13.422;2023-11-21T06:28:25;70.13;;;65.00;;
5710;SDS011;61291;52.524;13.422;2023-11-21T06:30:51;73.63;;;68.63;;
5710;SDS011;61291;52.524;13.422;2023-11-21T06:33:18;71.33;;;66.17;;
5710;SDS011;61291;52.524;13.422;2023-11-21T06:35:43;69.17;;;64.30;;
5710;SDS011;61291;52.524;13.422;2023-11-21T06:38:09;73.20;;;67.97;;
5710;SDS011;61291;52.524;13.422;2023-11-21T06:40:35;74.60;;;69.20;;
5710;SDS011;61291;52.524;13.422;2023-11-21T06:43:00;73.90;;;68.70;;
5710;SDS011;61291;52.524;13.422;2023-11-21T06:45:26;75.67;;;70.27;;
5710;SDS011;61291;52.524;13.422;2023-11-21T06:47:52;79.00;;;73.53;;
5710;SDS011;61291;52.524;13.422;2023-11-21T06:50:18;77.07;;;71.67;;
5710;SDS011;61291;52.524;13.422;2023-11-21T06:52:43;72.23;;;67.03;;
5710;SDS011;61291;52.524;13.422;2023-11-21T06:55:09;67.60;;;62.90;;
5710;SDS011;61291;52.524;13.422;2023-11-21T06:57:34;68.83;;;63.93;;
5710;SDS011;61291;52.524;13.422;2023-11-21T07:00:00;74.47;;;69.07;;
5710;SDS011;61291;52.524;13.422;2023-11-21T07:02:26;73.60;;;68.03;;
5710;SDS011;61291;52.524;13.422;2023-11-21T07:04:52;78.00;;;72.60;;
5710;SDS011;61291;52.524;13.422;2023-11-21T07:07:18;75.17;;;70.00;;
5710;SDS011;61291;52.524;13.422;2023-11-21T07:09:44;71.87;;;66.57;;
5710;SDS011;61291;52.524;13.422;2023-11-21T07:12:09;73.87;;;68.60;;
5710;SDS011;61291;52.524;13.422;2023-11-21T07:14:36;72.17;;;66.93;;
5710;SDS011;61291;52.524;13.422;2023-11-21T07:17:02;74.87;;;69.63;;
5710;SDS011;61291;52.524;13.422;2023-11-21T07:19:27;75.60;;;70.00;;
5710;SDS011;61291;52.524;13.422;2023-11-21T07:21:54;65.53;;;60.80;;
5710;SDS011;61291;52.524;13.422;2023-11-21T07:24:20;69.57;;;64.30;;
5710;SDS011;61291;52.524;13.422;2023-11-21T07:26:46;62.00;;;57.13;;
5710;SDS011;61291;52.524;13.422;2023-11-21T07:29:13;64.57;;;59.77;;
5710;SDS011;61291;52.524;13.422;2023-11-21T07:31:38;70.37;;;65.07;;
5710;SDS011;61291;52.524;13.422;2023-11-21T07:34:04;75.07;;;69.17;;
5710;SDS011;61291;52.524;13.422;2023-11-21T07:36:30;72.23;;;67.03;;
5710;SDS011;61291;52.524;13.422;2023-11-21T07:38:56;71.93;;;66.67;;
5710;SDS011;61291;52.524;13.422;2023-11-21T07:41:22;71.60;;;66.30;;
5710;SDS011;61291;52.524;13.422;2023-11-21T07:43:47;76.87;;;71.20;;
5710;SDS011;61291;52.524;13.422;2023-11-21T07:46:13;83.80;;;77.77;;
5710;SDS011;61291;52.524;13.422;2023-11-21T07:48:39;68.27;;;63.17;;
5710;SDS011;61291;52.524;13.422;2023-11-21T07:51:06;73.07;;;67.67;;
5710;SDS011;61291;52.524;13.422;2023-11-21T07:53:34;78.33;;;72.60;;
5710;SDS011;61291;52.524;13.422;2023-11-21T07:56:03;76.47;;;70.80;;
5710;SDS011;61291;52.524;13.422;2023-11-21T07:58:34;75.57;;;70.07;;
5710;SDS011;61291;52.524;13.422;2023-11-21T08:01:00;81.60;;;75.50;;
5710;SDS011;61291;52.524;13.422;2023-11-21T08:03:26;62.40;;;57.50;;
5710;SDS011;61291;52.524;13.422;2023-11-21T08:05:52;76.23;;;70.50;;
5710;SDS011;61291;52.524;13.422;2023-11-21T08:08:18;76.47;;;70.80;;
5710;SDS011;61291;52.524;13.422;2023-11-21T08:10:44;80.87;;;75.20;;
5710;SDS011;61291;52.524;13.422;2023-11-21T08:13:13;88.57;;;81.77;;
5710;SDS011;61291;52.524;13.422;2023-11-21T08:15:40;76.50;;;70.90;;
5710;SDS011;61291;52.524;13.422;2023-11-21T08:18:10;75.47;;;69.77;;
5710;SDS011;61291;52.524;13.422;2023-11-21T08:20:35;75.93;;;70.30;;
5710;SDS011;61291;52.524;13.422;2023-11-21T08:23:03;77.13;;;70.70;;
5710;SDS011;61291;52.524;13.422;2023-11-21T08:25:30;79.93;;;73.53;;
5710;SDS011;61291;52.524;13.422;2023-11-21T08:27:56;83.77;;;77.37;;
5710;SDS011;61291;52.524;13.422;2023-11-21T08:30:22;82.30;;;76.10;;
5710;SDS011;61291;52.524;13.422;2023-11-21T08:32:49;80.00;;;73.20;;
5710;SDS011;61291;52.524;13.422;2023-11-21T08:35:16;87.67;;;80.70;;
5710;SDS011;61291;52.524;13.422;2023-11-21T08:37:41;87.70;;;80.63;;
5710;SDS011;61291;52.524;13.422;2023-11-21T08:40:08;84.80;;;78.57;;
5710;SDS011;61291;52.524;13.422;2023-11-21T08:42:34;69.53;;;63.72;;
5710;SDS011;61291;52.524;13.422;2023-11-21T08:45:00;80.30;;;74.23;;
5710;SDS011;61291;52.524;13.422;2023-11-21T08:47:26;91.70;;;84.80;;
5710;SDS011;61291;52.524;13.422;2023-11-21T08:49:52;83.27;;;76.33;;
5710;SDS011;61291;52.524;13.422;2023-11-21T08:52:18;90.00;;;82.50;;
5710;SDS011;61291;52.524;13.422;2023-11-21T08:54:45;79.50;;;73.57;;
5710;SDS011;61291;52.524;13.422;2023-11-21T08:57:11;81.23;;;74.70;;
5710;SDS011;61291;52.524;13.422;2023-11-21T08:59:36;81.60;;;75.30;;
5710;SDS011;61291;52.524;13.422;2023-11-21T09:02:02;78.30;;;72.10;;
5710;SDS011;61291;52.524;13.422;2023-11-21T09:04:27;79.67;;;73.33;;
5710;SDS011;61291;52.524;13.422;2023-11-21T09:06:53;85.50;;;79.00;;
5710;SDS011;61291;52.524;13.422;2023-11-21T09:09:18;78.63;;;72.53;;
5710;SDS011;61291;52.524;13.422;2023-11-21T09:11:44;83.47;;;77.00;;
5710;SDS011;61291;52.524;13.422;2023-11-21T09:14:11;82.00;;;75.30;;
5710;SDS011;61291;52.524;13.422;2023-11-21T09:16:38;81.37;;;75.63;;
5710;SDS011;61291;52.524;13.422;2023-11-21T09:19:04;79.27;;;72.77;;
5710;SDS011;61291;52.524;13.422;2023-11-21T09:21:30;64.25;;;58.60;;
5710;SDS011;61291;52.524;13.422;2023-11-21T09:23:55;78.40;;;72.00;;
5710;SDS011;61291;52.524;13.422;2023-11-21T09:26:21;75.03;;;69.33;;
5710;SDS011;61291;52.524;13.422;2023-11-21T09:28:46;84.53;;;77.80;;
5710;SDS011;61291;52.524;13.422;2023-11-21T09:31:13;86.70;;;79.83;;
5710;SDS011;61291;52.524;13.422;2023-11-21T09:33:40;85.90;;;78.80;;
5710;SDS011;61291;52.524;13.422;2023-11-21T09:36:10;89.57;;;82.40;;
5710;SDS011;61291;52.524;13.422;2023-11-21T09:38:37;90.87;;;83.57;;
5710;SDS011;61291;52.524;13.422;2023-11-21T09:41:04;78.90;;;72.83;;
5710;SDS011;61291;52.524;13.422;2023-11-21T09:43:32;79.73;;;72.80;;
5710;SDS011;61291;52.524;13.422;2023-11-21T09:46:02;79.43;;;72.90;;
5710;SDS011;61291;52.524;13.422;2023-11-21T09:48:31;82.00;;;75.53;;
5710;SDS011;61291;52.524;13.422;2023-11-21T09:50:58;77.57;;;71.57;;
5710;SDS011;61291;52.524;13.422;2023-11-21T09:53:25;76.87;;;70.87;;
5710;SDS011;61291;52.524;13.422;2023-11-21T09:55:54;80.13;;;74.13;;
5710;SDS011;61291;52.524;13.422;2023-11-21T09:58:21;77.70;;;71.77;;
5710;SDS011;61291;52.524;13.422;2023-11-21T10:00:48;72.90;;;67.60;;
5710;SDS011;61291;52.524;13.422;2023-11-21T10:03:17;78.80;;;73.10;;
5710;SDS011;61291;52.524;13.422;2023-11-21T10:05:43;80.17;;;74.37;;
5710;SDS011;61291;52.524;13.422;2023-11-21T10:08:11;84.90;;;78.90;;
5710;SDS011;61291;52.524;13.422;2023-11-21T10:10:37;82.73;;;77.20;;
5710;SDS011;61291;52.524;13.422;2023-11-21T10:13:10;82.10;;;76.43;;
5710;SDS011;61291;52.524;13.422;2023-11-21T10:15:37;83.57;;;77.77;;
5710;SDS011;61291;52.524;13.422;2023-11-21T10:18:03;82.97;;;77.37;;
5710;SDS011;61291;52.524;13.422;2023-11-21T10:20:31;91.73;;;85.40;;
5710;SDS011;61291;52.524;13.422;2023-11-21T10:23:02;81.37;;;75.80;;
5710;SDS011;61291;52.524;13.422;2023-11-21T10:25:28;78.97;;;73.47;;
5710;SDS011;61291;52.524;13.422;2023-11-21T10:27:57;83.57;;;77.87;;
5710;SDS011;61291;52.524;13.422;2023-11-21T10:30:31;77.40;;;71.73;;
5710;SDS011;61291;52.524;13.422;2023-11-21T10:33:06;73.10;;;68.20;;
5710;SDS011;61291;52.524;13.422;2023-11-21T10:35:41;79.03;;;73.93;;
5710;SDS011;61291;52.524;13.422;2023-11-21T10:38:16;83.77;;;77.80;;
5710;SDS011;61291;52.524;13.422;2023-11-21T10:40:42;82.73;;;77.20;;
5710;SDS011;61291;52.524;13.422;2023-11-21T10:43:09;85.23;;;79.60;;
5710;SDS011;61291;52.524;13.422;2023-11-21T10:45:36;85.87;;;80.07;;
5710;SDS011;61291;52.524;13.422;2023-11-21T10:48:04;85.73;;;80.20;;
5710;SDS011;61291;52.524;13.422;2023-11-21T10:50:42;82.53;;;77.03;;
5710;SDS011;61291;52.524;13.422;2023-11-21T10:53:11;79.47;;;74.07;;
5710;SDS011;61291;52.524;13.422;2023-11-21T10:55:37;78.50;;;73.30;;
5710;SDS011;61291;52.524;13.422;2023-11-21T10:58:03;82.53;;;76.77;;
5710;SDS011;61291;52.524;13.422;2023-11-21T11:00:30;82.30;;;76.87;;
5710;SDS011;61291;52.524;13.422;2023-11-21T11:02:56;79.10;;;73.90;;
5710;SDS011;61291;52.524;13.422;2023-11-21T11:05:24;84.47;;;78.67;;
5710;SDS011;61291;52.524;13.422;2023-11-21T11:07:51;85.80;;;80.13;;
5710;SDS011;61291;52.524;13.422;2023-11-21T11:10:24;82.07;;;76.47;;
5710;SDS011;61291;52.524;13.422;2023-11-21T11:12:52;78.77;;;73.57;;
5710;SDS011;61291;52.524;13.422;2023-11-21T11:15:22;76.80;;;71.80;;
5710;SDS011;61291;52.524;13.422;2023-11-21T11:17:49;74.80;;;69.70;;
5710;SDS011;61291;52.524;13.422;2023-11-21T11:20:15;61.05;;;56.85;;
5710;SDS011;61291;52.524;13.422;2023-11-21T11:22:44;79.73;;;74.43;;
5710;SDS011;61291;52.524;13.422;2023-11-21T11:25:41;76.80;;;71.60;;
5710;SDS011;61291;52.524;13.422;2023-11-21T11:28:29;74.73;;;69.73;;
5710;SDS011;61291;52.524;13.422;2023-11-21T11:31:13;77.77;;;72.37;;
5710;SDS011;61291;52.524;13.422;2023-11-21T11:34:00;70.27;;;65.27;;
5710;SDS011;61291;52.524;13.422;2023-11-21T11:37:05;79.10;;;73.70;;
5710;SDS011;61291;52.524;13.422;2023-11-21T11:39:35;77.00;;;71.77;;
5710;SDS011;61291;52.524;13.422;2023-11-21T11:42:11;71.33;;;66.43;;
5710;SDS011;61291;52.524;13.422;2023-11-21T11:50:08;59.60;;;55.25;;
5710;SDS011;61291;52.524;13.422;2023-11-21T11:52:45;78.30;;;72.67;;
5710;SDS011;61291;52.524;13.422;2023-11-21T11:55:15;69.23;;;64.53;;
5710;SDS011;61291;52.524;13.422;2023-11-21T11:57:51;69.83;;;65.03;;
5710;SDS011;61291;52.524;13.422;2023-11-21T12:02:54;70.83;;;66.30;;
5710;SDS011;61291;52.524;13.422;2023-11-21T12:05:25;76.20;;;71.13;;
5710;SDS011;61291;52.524;13.422;2023-11-21T12:07:57;78.77;;;73.67;;
5710;SDS011;61291;52.524;13.422;2023-11-21T12:10:25;74.10;;;69.20;;
5710;SDS011;61291;52.524;13.422;2023-11-21T12:12:56;76.27;;;71.27;;
5710;SDS011;61291;52.524;13.422;2023-11-21T12:15:23;77.07;;;71.67;;
5710;SDS011;61291;52.524;13.422;2023-11-21T12:17:50;78.47;;;73.33;;
5710;SDS011;61291;52.524;13.422;2023-11-21T12:20:20;75.20;;;70.10;;
5710;SDS011;61291;52.524;13.422;2023-11-21T12:22:47;78.20;;;72.90;;
5710;SDS011;61291;52.524;13.422;2023-11-21T12:25:25;82.57;;;76.97;;
5710;SDS011;61291;52.524;13.422;2023-11-21T12:27:56;76.40;;;71.20;;
5710;SDS011;61291;52.524;13.422;2023-11-21T12:30:23;85.73;;;79.70;;
5710;SDS011;61291;52.524;13.422;2023-11-21T12:32:53;73.07;;;67.97;;
5710;SDS011;61291;52.524;13.422;2023-11-21T12:35:21;76.60;;;71.30;;
5710;SDS011;61291;52.524;13.422;2023-11-21T12:37:51;76.40;;;71.30;;
5710;SDS011;61291;52.524;13.422;2023-11-21T12:40:17;77.40;;;71.97;;
5710;SDS011;61291;52.524;13.422;2023-11-21T12:42:46;73.43;;;68.37;;
5710;SDS011;61291;52.524;13.422;2023-11-21T12:47:46;76.83;;;71.93;;
5710;SDS011;61291;52.524;13.422;2023-11-21T12:50:19;77.37;;;72.13;;
5710;SDS011;61291;52.524;13.422;2023-11-21T12:52:48;74.60;;;69.60;;
5710;SDS011;61291;52.524;13.422;2023-11-21T12:55:19;73.77;;;68.87;;
5710;SDS011;61291;52.524;13.422;2023-11-21T12:57:49;86.50;;;80.73;;
5710;SDS011;61291;52.524;13.422;2023-11-21T13:00:16;90.13;;;84.03;;
5710;SDS011;61291;52.524;13.422;2023-11-21T13:02:56;80.20;;;75.13;;
5710;SDS011;61291;52.524;13.422;2023-11-21T13:05:27;80.63;;;74.93;;
5710;SDS011;61291;52.524;13.422;2023-11-21T13:07:57;82.83;;;76.97;;
5710;SDS011;61291;52.524;13.422;2023-11-21T13:10:28;76.00;;;70.90;;
5710;SDS011;61291;52.524;13.422;2023-11-21T13:12:57;82.40;;;76.70;;
5710;SDS011;61291;52.524;13.422;2023-11-21T13:15:24;76.53;;;71.33;;
5710;SDS011;61291;52.524;13.422;2023-11-21T13:17:50;61.30;;;56.70;;
5710;SDS011;61291;52.524;13.422;2023-11-21T13:20:19;81.57;;;75.87;;
5710;SDS011;61291;52.524;13.422;2023-11-21T13:22:49;82.10;;;76.40;;
5710;SDS011;61291;52.524;13.422;2023-11-21T13:25:28;79.50;;;73.50;;
5710;SDS011;61291;52.524;13.422;2023-11-21T13:27:54;81.33;;;75.53;;
5710;SDS011;61291;52.524;13.422;2023-11-21T13:30:20;79.40;;;73.90;;
5710;SDS011;61291;52.524;13.422;2023-11-21T13:32:51;73.50;;;68.60;;
5710;SDS011;61291;52.524;13.422;2023-11-21T13:35:18;69.50;;;64.87;;
5710;SDS011;61291;52.524;13.422;2023-11-21T13:37:55;71.50;;;66.30;;
5710;SDS011;61291;52.524;13.422;2023-11-21T13:40:24;78.00;;;72.30;;
5710;SDS011;61291;52.524;13.422;2023-11-21T13:42:55;75.67;;;70.23;;
5710;SDS011;61291;52.524;13.422;2023-11-21T13:45:24;76.57;;;71.20;;
5710;SDS011;61291;52.524;13.422;2023-11-21T13:47:51;77.30;;;71.77;;
5710;SDS011;61291;52.524;13.422;2023-11-21T13:50:22;62.38;;;57.63;;
5710;SDS011;61291;52.524;13.422;2023-11-21T13:52:52;79.47;;;73.77;;
5710;SDS011;61291;52.524;13.422;2023-11-21T13:55:18;78.40;;;72.87;;
5710;SDS011;61291;52.524;13.422;2023-11-21T13:57:44;72.60;;;67.40;;
5710;SDS011;61291;52.524;13.422;2023-11-21T14:00:14;73.60;;;67.97;;
5710;SDS011;61291;52.524;13.422;2023-11-21T14:03:00;81.17;;;75.50;;
5710;SDS011;61291;52.524;13.422;2023-11-21T14:05:27;79.57;;;74.23;;
5710;SDS011;61291;52.524;13.422;2023-11-21T14:07:55;76.57;;;71.27;;
5710;SDS011;61291;52.524;13.422;2023-11-21T14:10:21;71.17;;;66.23;;
5710;SDS011;61291;52.524;13.422;2023-11-21T14:12:49;82.50;;;76.43;;
5710;SDS011;61291;52.524;13.422;2023-11-21T14:15:15;74.17;;;69.00;;
5710;SDS011;61291;52.524;13.422;2023-11-21T14:17:43;73.87;;;68.37;;
5710;SDS011;61291;52.524;13.422;2023-11-21T14:20:09;79.73;;;73.67;;
5710;SDS011;61291;52.524;13.422;2023-11-21T14:22:40;79.00;;;73.30;;
5710;SDS011;61291;52.524;13.422;2023-11-21T14:25:06;77.37;;;71.67;;
5710;SDS011;61291;52.524;13.422;2023-11-21T14:27:32;87.40;;;80.63;;
5710;SDS011;61291;52.524;13.422;2023-11-21T14:29:58;84.33;;;78.43;;
5710;SDS011;61291;52.524;13.422;2023-11-21T14:32:24;78.87;;;73.33;;